createdAt,value
2022-11-12T00:00:14.260Z,101114.40
2022-11-12T00:03:02.694Z,101131.40
2022-11-12T00:05:31.789Z,101091.60
2022-11-12T00:08:02.237Z,101142.80
2022-11-12T00:10:43.962Z,101130.80
2022-11-12T00:13:12.945Z,101110.60
2022-11-12T00:15:41.880Z,101112.40
2022-11-12T00:18:13.536Z,101113.40
2022-11-12T00:20:43.245Z,101121.00
2022-11-12T00:23:13.054Z,101144.40
2022-11-12T00:25:40.943Z,101124.40
2022-11-12T00:28:10.911Z,101125.80
2022-11-12T00:30:41.599Z,101146.40
2022-11-12T00:33:10.269Z,101161.40
2022-11-12T00:35:39.589Z,101127.00
2022-11-12T00:38:08.900Z,101151.60
2022-11-12T00:40:36.812Z,101151.20
2022-11-12T00:43:08.942Z,101154.00
2022-11-12T00:45:37.398Z,101155.80
2022-11-12T00:48:07.640Z,101147.20
2022-11-12T00:50:35.543Z,101171.80
2022-11-12T00:53:04.549Z,101149.40
2022-11-12T00:55:32.813Z,101179.00
2022-11-12T00:58:02.463Z,101175.60
2022-11-12T01:00:32.805Z,101184.80
2022-11-12T01:03:02.218Z,101182.20
2022-11-12T01:05:30.855Z,101176.60
2022-11-12T01:07:59.044Z,101181.60
2022-11-12T01:10:30.651Z,101183.00
2022-11-12T01:12:58.384Z,101199.20
2022-11-12T01:15:27.585Z,101192.00
2022-11-12T01:17:55.854Z,101197.40
2022-11-12T01:20:24.574Z,101205.60
2022-11-12T01:22:54.565Z,101207.00
2022-11-12T01:25:24.129Z,101213.00
2022-11-12T01:27:53.738Z,101227.80
2022-11-12T01:30:23.227Z,101231.80
2022-11-12T01:32:56.301Z,101240.60
2022-11-12T01:35:29.796Z,101247.20
2022-11-12T01:37:57.726Z,101247.00
2022-11-12T01:40:26.480Z,101249.80
2022-11-12T01:42:55.695Z,101260.60
2022-11-12T01:45:25.228Z,101256.40
2022-11-12T01:47:53.478Z,101257.40
2022-11-12T01:50:40.061Z,101270.80
2022-11-12T01:53:16.380Z,101279.00
2022-11-12T01:55:45.953Z,101282.00
2022-11-12T01:58:22.526Z,101285.60
2022-11-12T02:00:54.543Z,101292.20
2022-11-12T02:03:28.105Z,101305.00
2022-11-12T02:06:28.043Z,101299.00
2022-11-12T02:09:00.364Z,101308.80
2022-11-12T02:11:29.250Z,101311.40
2022-11-12T02:14:01.732Z,101310.40
2022-11-12T02:16:36.052Z,101328.80
2022-11-12T02:19:07.763Z,101326.40
2022-11-12T02:21:38.998Z,101324.60
2022-11-12T02:24:14.176Z,101331.40
2022-11-12T02:26:49.519Z,101335.00
2022-11-12T02:29:17.887Z,101332.80
2022-11-12T02:31:56.191Z,101346.00
2022-11-12T02:34:24.712Z,101347.80
2022-11-12T02:36:53.370Z,101353.60
2022-11-12T02:39:27.937Z,101356.20
2022-11-12T02:41:56.790Z,101360.60
2022-11-12T02:44:24.680Z,101358.20
2022-11-12T02:46:53.659Z,101354.20
2022-11-12T02:49:24.900Z,101365.40
2022-11-12T02:51:55.010Z,101375.60
2022-11-12T02:54:26.692Z,101385.60
2022-11-12T02:56:55.048Z,101394.00
2022-11-12T02:59:23.746Z,101400.80
2022-11-12T03:01:52.494Z,101405.40
2022-11-12T03:04:24.453Z,101404.00
2022-11-12T03:07:02.190Z,101417.60
2022-11-12T03:09:35.199Z,101436.00
2022-11-12T03:12:04.865Z,101436.40
2022-11-12T03:14:36.539Z,101446.80
2022-11-12T03:17:08.025Z,101456.80
2022-11-12T03:19:36.997Z,101478.60
2022-11-12T03:22:09.637Z,101483.80
2022-11-12T03:24:41.762Z,101482.00
2022-11-12T03:27:11.122Z,101513.20
2022-11-12T03:29:40.215Z,101528.20
2022-11-12T03:32:09.528Z,101547.00
2022-11-12T03:34:38.887Z,101549.00
2022-11-12T03:37:09.841Z,101545.60
2022-11-12T03:39:38.936Z,101560.00
2022-11-12T03:42:13.608Z,101570.60
2022-11-12T03:44:43.867Z,101572.80
2022-11-12T03:47:13.007Z,101577.20
2022-11-12T03:49:42.480Z,101585.60
2022-11-12T03:52:12.826Z,101578.20
2022-11-12T03:54:42.420Z,101596.60
2022-11-12T03:57:10.868Z,101596.00
2022-11-12T03:59:42.142Z,101603.80
2022-11-12T04:02:14.841Z,101612.00
2022-11-12T04:05:03.856Z,101644.20
2022-11-12T04:07:56.066Z,101641.40
2022-11-12T04:10:29.228Z,101649.80
2022-11-12T04:13:20.109Z,101671.20
2022-11-12T04:16:08.932Z,101674.40
2022-11-12T04:19:03.581Z,101681.80
2022-11-12T04:21:52.410Z,101689.20
2022-11-12T04:24:48.144Z,101691.80
2022-11-12T04:27:31.703Z,101703.60
2022-11-12T04:30:20.912Z,101722.60
2022-11-12T04:32:58.037Z,101715.80
2022-11-12T04:35:28.192Z,101715.80
2022-11-12T04:37:58.359Z,101710.80
2022-11-12T04:40:48.558Z,101726.80
2022-11-12T04:43:37.958Z,101736.00
2022-11-12T04:46:08.849Z,101726.80
2022-11-12T04:48:36.839Z,101752.40
2022-11-12T04:51:27.306Z,101743.80
2022-11-12T04:53:56.151Z,101753.60
2022-11-12T04:56:26.069Z,101754.80
2022-11-12T04:58:57.111Z,101760.40
2022-11-12T05:01:26.462Z,101759.60
2022-11-12T05:03:54.947Z,101767.40
2022-11-12T05:06:42.938Z,101778.00
2022-11-12T05:09:12.517Z,101784.80
2022-11-12T05:11:42.863Z,101800.60
2022-11-12T05:14:13.134Z,101817.40
2022-11-12T05:16:40.992Z,101834.80
2022-11-12T05:19:11.484Z,101853.60
2022-11-12T05:21:59.787Z,101860.00
2022-11-12T05:24:41.537Z,101862.60
2022-11-12T05:27:18.015Z,101882.00
2022-11-12T05:29:49.166Z,101894.60
2022-11-12T05:32:19.514Z,101912.40
2022-11-12T05:34:48.978Z,101931.00
2022-11-12T05:37:20.025Z,101946.20
2022-11-12T05:39:50.295Z,101952.00
2022-11-12T05:42:19.381Z,101971.00
2022-11-12T05:44:50.490Z,101984.60
2022-11-12T05:47:18.356Z,102012.80
2022-11-12T05:49:47.071Z,102026.80
2022-11-12T05:52:15.511Z,102033.20
2022-11-12T05:54:44.822Z,102047.40
2022-11-12T05:57:13.529Z,102059.00
2022-11-12T05:59:43.271Z,102064.60
2022-11-12T06:02:12.726Z,102078.20
2022-11-12T06:04:44.814Z,102088.40
2022-11-12T06:07:13.730Z,102092.20
2022-11-12T06:09:42.257Z,102093.60
2022-11-12T06:12:10.767Z,102102.80
2022-11-12T06:14:42.164Z,102107.80
2022-11-12T06:17:09.911Z,102109.20
2022-11-12T06:19:40.995Z,102120.20
2022-11-12T06:22:09.097Z,102134.20
2022-11-12T06:24:37.662Z,102144.80
2022-11-12T06:27:06.302Z,102150.40
2022-11-12T06:29:35.180Z,102158.20
2022-11-12T06:32:08.187Z,102159.80
2022-11-12T06:34:39.056Z,102174.40
2022-11-12T06:37:07.255Z,102176.60
2022-11-12T06:39:36.059Z,102192.40
2022-11-12T06:42:04.637Z,102202.80
2022-11-12T06:44:33.478Z,102212.20
2022-11-12T06:47:11.215Z,102212.00
2022-11-12T06:49:39.907Z,102217.20
2022-11-12T06:52:11.142Z,102220.00
2022-11-12T06:54:46.226Z,102228.40
2022-11-12T06:57:16.490Z,102243.20
2022-11-12T06:59:45.458Z,102246.20
2022-11-12T07:02:15.376Z,102253.00
2022-11-12T07:04:44.742Z,102266.40
2022-11-12T07:07:12.990Z,102268.60
2022-11-12T07:09:44.101Z,102274.20
2022-11-12T07:12:12.099Z,102270.80
2022-11-12T07:14:42.269Z,102283.20
2022-11-12T07:17:13.738Z,102297.80
2022-11-12T07:19:42.130Z,102310.80
2022-11-12T07:22:11.221Z,102296.20
2022-11-12T07:24:40.325Z,102301.00
2022-11-12T07:27:09.441Z,102299.80
2022-11-12T07:29:48.218Z,102307.40
2022-11-12T07:32:17.315Z,102312.20
2022-11-12T07:34:45.120Z,102323.60
2022-11-12T07:37:19.417Z,102330.60
2022-11-12T07:39:47.429Z,102328.00
2022-11-12T07:42:20.177Z,102344.60
2022-11-12T07:44:47.898Z,102349.00
2022-11-12T07:47:18.035Z,102348.00
2022-11-12T07:49:50.925Z,102365.20
2022-11-12T07:52:20.264Z,102369.00
2022-11-12T07:54:49.692Z,102373.20
2022-11-12T07:57:21.115Z,102386.20
2022-11-12T07:59:49.063Z,102393.40
2022-11-12T08:02:18.878Z,102399.60
2022-11-12T08:04:48.550Z,102406.60
2022-11-12T08:07:17.079Z,102408.20
2022-11-12T08:09:48.000Z,102420.00
2022-11-12T08:12:20.433Z,102427.20
2022-11-12T08:14:59.199Z,102436.80
2022-11-12T08:17:31.363Z,102439.40
2022-11-12T08:19:59.100Z,102441.40
2022-11-12T08:22:28.292Z,102461.60
2022-11-12T08:24:58.098Z,102461.00
2022-11-12T08:27:26.930Z,102465.20
2022-11-12T08:29:56.311Z,102476.20
2022-11-12T08:32:25.664Z,102480.00
2022-11-12T08:34:56.478Z,102476.60
2022-11-12T08:37:27.387Z,102479.40
2022-11-12T08:40:00.287Z,102482.00
2022-11-12T08:42:30.156Z,102480.80
2022-11-12T08:44:58.737Z,102481.80
2022-11-12T08:47:29.860Z,102481.00
2022-11-12T08:49:57.680Z,102482.20
2022-11-12T08:52:25.848Z,102486.40
2022-11-12T08:54:56.986Z,102494.40
2022-11-12T08:57:26.347Z,102500.80
2022-11-12T08:59:56.279Z,102503.80
2022-11-12T09:02:25.847Z,102514.40
2022-11-12T09:04:57.790Z,102515.40
2022-11-12T09:07:48.663Z,102518.00
2022-11-12T09:10:19.310Z,102516.40
2022-11-12T09:12:52.915Z,102516.40
2022-11-12T09:15:41.193Z,102519.40
2022-11-12T09:18:19.165Z,102522.40
2022-11-12T09:20:52.502Z,102521.40
2022-11-12T09:23:20.878Z,102525.60
2022-11-12T09:25:49.060Z,102523.40
2022-11-12T09:28:19.284Z,102525.60
2022-11-12T09:30:51.705Z,102528.20
2022-11-12T09:33:29.487Z,102540.00
2022-11-12T09:36:03.254Z,102545.20
2022-11-12T09:38:37.372Z,102557.20
2022-11-12T09:41:24.575Z,102561.80
2022-11-12T09:44:01.391Z,102565.00
2022-11-12T09:46:54.518Z,102579.40
2022-11-12T09:49:40.021Z,102584.80
2022-11-12T09:52:22.663Z,102588.20
2022-11-12T09:55:39.235Z,102590.40
2022-11-12T09:58:19.099Z,102596.60
2022-11-12T10:01:08.823Z,102602.60
2022-11-12T10:04:23.587Z,102609.40
2022-11-12T10:07:24.928Z,102615.00
2022-11-12T10:10:28.546Z,102614.00
2022-11-12T10:13:15.123Z,102616.60
2022-11-12T10:16:29.830Z,102622.00
2022-11-12T10:19:32.225Z,102620.60
2022-11-12T10:22:41.908Z,102617.00
2022-11-12T10:25:26.607Z,102617.40
2022-11-12T10:27:57.521Z,102619.40
2022-11-12T10:30:26.920Z,102626.60
2022-11-12T10:32:58.372Z,102628.60
2022-11-12T10:35:29.080Z,102634.40
2022-11-12T10:38:13.085Z,102636.00
2022-11-12T10:40:42.870Z,102637.20
2022-11-12T10:43:16.424Z,102641.20
2022-11-12T10:45:46.701Z,102640.60
2022-11-12T10:48:35.152Z,102642.60
2022-11-12T10:51:31.328Z,102650.60
2022-11-12T10:54:30.201Z,102659.00
2022-11-12T10:57:35.032Z,102662.80
2022-11-12T11:00:18.255Z,102669.00
2022-11-12T11:02:54.208Z,102679.40
2022-11-12T11:05:57.971Z,102678.00
2022-11-12T11:08:40.371Z,102682.60
2022-11-12T11:11:55.367Z,102685.80
2022-11-12T11:14:27.851Z,102692.40
2022-11-12T11:17:11.836Z,102699.80
2022-11-12T11:19:45.639Z,102702.80
2022-11-12T11:22:29.357Z,102714.00
2022-11-12T11:25:11.710Z,102715.00
2022-11-12T11:28:11.271Z,102714.80
2022-11-12T11:31:00.102Z,102722.00
2022-11-12T11:33:55.463Z,102724.20
2022-11-12T11:37:08.560Z,102726.80
2022-11-12T11:40:24.894Z,102733.40
2022-11-12T11:43:37.009Z,102736.40
2022-11-12T11:46:42.096Z,102743.80
2022-11-12T11:49:45.391Z,102746.40
2022-11-12T11:52:55.905Z,102750.00
2022-11-12T11:55:46.995Z,102753.00
2022-11-12T11:58:57.661Z,102757.00
2022-11-12T12:02:08.913Z,102766.00
2022-11-12T12:05:38.435Z,102765.20
2022-11-12T12:08:40.840Z,102763.80
2022-11-12T12:11:36.570Z,102769.60
2022-11-12T12:14:28.846Z,102767.20
2022-11-12T12:20:03.604Z,102769.20
2022-11-12T12:22:53.126Z,102773.20
2022-11-12T12:25:30.595Z,102777.20
2022-11-12T12:28:23.313Z,102775.20
2022-11-12T12:31:02.395Z,102781.80
2022-11-12T12:33:48.863Z,102790.40
2022-11-12T12:36:25.142Z,102789.20
2022-11-12T12:39:23.987Z,102785.40
2022-11-12T12:42:03.307Z,102794.20
2022-11-12T12:45:08.119Z,102793.20
2022-11-12T12:47:44.690Z,102795.40
2022-11-12T12:50:18.123Z,102790.60
2022-11-12T12:53:15.583Z,102794.80
2022-11-12T12:56:01.071Z,102797.60
2022-11-12T12:58:56.948Z,102788.20
2022-11-12T13:01:38.237Z,102791.60
2022-11-12T13:04:09.531Z,102797.80
2022-11-12T13:06:49.873Z,102801.00
2022-11-12T13:09:27.599Z,102797.80
2022-11-12T13:12:25.538Z,102798.60
2022-11-12T13:15:17.723Z,102802.00
2022-11-12T13:17:51.145Z,102805.20
2022-11-12T13:20:36.253Z,102797.20
2022-11-12T13:23:33.268Z,102795.20
2022-11-12T13:26:43.015Z,102800.60
2022-11-12T13:29:58.635Z,102800.80
2022-11-12T13:32:47.147Z,102795.80
2022-11-12T13:35:15.685Z,102796.60
2022-11-12T13:37:54.508Z,102798.00
2022-11-12T13:41:05.092Z,102794.40
2022-11-12T13:43:47.493Z,102790.40
2022-11-12T13:46:29.421Z,102784.60
2022-11-12T13:49:14.461Z,102783.00
2022-11-12T13:51:53.340Z,102785.00
2022-11-12T13:54:38.305Z,102782.60
2022-11-12T13:57:29.490Z,102783.20
2022-11-12T14:00:17.454Z,102784.20
2022-11-12T14:02:53.880Z,102789.20
2022-11-12T14:05:34.580Z,102779.80
2022-11-12T14:08:41.795Z,102776.00
2022-11-12T14:11:49.783Z,102774.00
2022-11-12T14:14:50.228Z,102773.20
2022-11-12T14:18:13.478Z,102773.20
2022-11-12T14:20:44.200Z,102775.00
2022-11-12T14:23:23.174Z,102773.60
2022-11-12T14:25:58.936Z,102769.00
2022-11-12T14:28:42.028Z,102773.20
2022-11-12T14:31:15.763Z,102776.20
2022-11-12T14:33:45.941Z,102779.00
2022-11-12T14:36:20.433Z,102772.80
2022-11-12T14:38:57.344Z,102779.80
2022-11-12T14:42:00.103Z,102783.20
2022-11-12T14:44:34.902Z,102781.80
2022-11-12T14:47:05.257Z,102780.60
2022-11-12T14:49:48.844Z,102785.80
2022-11-12T14:52:32.977Z,102791.40
2022-11-12T14:55:21.696Z,102784.80
2022-11-12T14:57:58.708Z,102785.40
2022-11-12T15:00:38.805Z,102784.80
2022-11-12T15:03:17.802Z,102781.80
2022-11-12T15:06:07.564Z,102782.20
2022-11-12T15:08:47.637Z,102787.00
2022-11-12T15:11:45.654Z,102783.00
2022-11-12T15:14:26.745Z,102786.00
2022-11-12T15:16:56.029Z,102793.00
2022-11-12T15:19:33.270Z,102791.60
2022-11-12T15:22:06.293Z,102795.00
2022-11-12T15:24:41.267Z,102798.20
2022-11-12T15:27:38.619Z,102798.80
2022-11-12T15:30:48.958Z,102804.40
2022-11-12T15:33:22.802Z,102802.40
2022-11-12T15:36:03.336Z,102793.40
2022-11-12T15:38:38.144Z,102794.60
2022-11-12T15:41:31.802Z,102796.20
2022-11-12T15:44:04.746Z,102798.40
2022-11-12T15:46:35.063Z,102797.60
2022-11-12T15:49:04.436Z,102800.80
2022-11-12T15:51:34.143Z,102806.60
2022-11-12T15:54:03.957Z,102812.40
2022-11-12T15:56:32.365Z,102819.00
2022-11-12T15:59:01.031Z,102826.00
2022-11-12T16:01:31.311Z,102829.80
2022-11-12T16:04:03.040Z,102824.00
2022-11-12T16:06:31.019Z,102824.20
2022-11-12T16:08:59.718Z,102828.20
2022-11-12T16:11:36.633Z,102835.20
2022-11-12T16:14:13.292Z,102835.40
2022-11-12T16:16:41.790Z,102829.80
2022-11-12T16:19:17.771Z,102827.20
2022-11-12T16:21:48.542Z,102828.00
2022-11-12T16:24:17.825Z,102829.40
2022-11-12T16:26:48.115Z,102830.20
2022-11-12T16:29:17.794Z,102841.80
2022-11-12T16:31:49.055Z,102848.20
2022-11-12T16:34:19.652Z,102845.60
2022-11-12T16:36:50.029Z,102848.00
2022-11-12T16:39:25.302Z,102852.80
2022-11-12T16:41:57.981Z,102851.80
2022-11-12T16:44:26.162Z,102849.40
2022-11-12T16:46:55.685Z,102840.80
2022-11-12T16:49:24.642Z,102840.40
2022-11-12T16:51:56.170Z,102836.60
2022-11-12T16:54:26.441Z,102837.00
2022-11-12T16:56:58.352Z,102842.40
2022-11-12T16:59:26.284Z,102843.20
2022-11-12T17:01:55.662Z,102844.20
2022-11-12T17:04:24.925Z,102852.20
2022-11-12T17:06:53.804Z,102859.60
2022-11-12T17:09:24.896Z,102856.00
2022-11-12T17:12:02.177Z,102858.00
2022-11-12T17:14:31.116Z,102855.20
2022-11-12T17:17:02.579Z,102847.80
2022-11-12T17:19:31.839Z,102855.40
2022-11-12T17:22:00.605Z,102858.80
2022-11-12T17:24:29.876Z,102865.80
2022-11-12T17:27:00.138Z,102863.80
2022-11-12T17:29:31.910Z,102859.80
2022-11-12T17:31:59.680Z,102849.20
2022-11-12T17:34:28.367Z,102853.00
2022-11-12T17:36:57.187Z,102845.00
2022-11-12T17:39:25.266Z,102853.00
2022-11-12T17:41:56.240Z,102854.40
2022-11-12T17:44:24.657Z,102854.20
2022-11-12T17:46:57.124Z,102847.80
2022-11-12T17:49:26.962Z,102846.20
2022-11-12T17:52:03.524Z,102849.20
2022-11-12T17:54:34.846Z,102848.40
2022-11-12T17:57:03.792Z,102853.00
2022-11-12T17:59:32.513Z,102848.40
2022-11-12T18:02:01.139Z,102851.00
2022-11-12T18:04:32.116Z,102858.40
2022-11-12T18:07:02.223Z,102859.00
2022-11-12T18:09:32.241Z,102857.80
2022-11-12T18:12:03.333Z,102855.80
2022-11-12T18:14:31.128Z,102859.20
2022-11-12T18:17:01.442Z,102859.40
2022-11-12T18:19:30.713Z,102862.40
2022-11-12T18:21:59.912Z,102862.20
2022-11-12T18:24:28.096Z,102866.40
2022-11-12T18:26:59.426Z,102869.00
2022-11-12T18:29:27.922Z,102868.80
2022-11-12T18:31:56.876Z,102868.80
2022-11-12T18:34:26.164Z,102867.00
2022-11-12T18:36:58.544Z,102868.60
2022-11-12T18:39:27.752Z,102869.80
2022-11-12T18:41:55.530Z,102867.60
2022-11-12T18:44:26.182Z,102869.60
2022-11-12T18:46:55.302Z,102866.40
2022-11-12T18:49:25.470Z,102867.80
2022-11-12T18:51:53.939Z,102864.60
2022-11-12T18:54:25.903Z,102866.40
2022-11-12T18:56:55.411Z,102873.40
2022-11-12T18:59:25.003Z,102879.20
2022-11-12T19:01:52.958Z,102878.80
2022-11-12T19:04:25.577Z,102886.00
2022-11-12T19:06:54.148Z,102895.00
2022-11-12T19:09:28.644Z,102896.60
2022-11-12T19:11:56.591Z,102895.00
2022-11-12T19:14:26.814Z,102893.80
2022-11-12T19:16:55.330Z,102890.60
2022-11-12T19:19:23.784Z,102901.40
2022-11-12T19:21:51.507Z,102906.20
2022-11-12T19:24:20.395Z,102906.20
2022-11-12T19:26:50.402Z,102909.60
2022-11-12T19:29:21.251Z,102912.20
2022-11-12T19:31:49.753Z,102912.60
2022-11-12T19:34:19.408Z,102917.40
2022-11-12T19:37:00.567Z,102919.60
2022-11-12T19:39:38.615Z,102917.60
2022-11-12T19:42:10.914Z,102922.20
2022-11-12T19:44:38.939Z,102920.40
2022-11-12T19:47:09.947Z,102914.80
2022-11-12T19:49:40.385Z,102910.00
2022-11-12T19:52:08.725Z,102911.20
2022-11-12T19:54:36.944Z,102909.40
2022-11-12T19:57:05.961Z,102913.80
2022-11-12T19:59:35.969Z,102910.40
2022-11-12T20:02:13.690Z,102918.40
2022-11-12T20:04:42.003Z,102917.40
2022-11-12T20:07:12.324Z,102917.40
2022-11-12T20:09:41.887Z,102915.80
2022-11-12T20:12:11.855Z,102918.40
2022-11-12T20:14:47.244Z,102925.20
2022-11-12T20:17:17.983Z,102926.20
2022-11-12T20:19:47.631Z,102926.60
2022-11-12T20:22:26.709Z,102930.80
2022-11-12T20:25:00.487Z,102924.20
2022-11-12T20:27:30.269Z,102925.00
2022-11-12T20:29:58.643Z,102923.40
2022-11-12T20:32:26.962Z,102930.80
2022-11-12T20:34:58.108Z,102927.80
2022-11-12T20:37:27.690Z,102929.00
2022-11-12T20:39:56.072Z,102929.40
2022-11-12T20:42:24.639Z,102933.40
2022-11-12T20:44:53.656Z,102930.40
2022-11-12T20:47:22.061Z,102925.00
2022-11-12T20:49:50.423Z,102928.60
2022-11-12T20:52:21.189Z,102934.60
2022-11-12T20:54:49.070Z,102934.00
2022-11-12T20:57:17.244Z,102934.20
2022-11-12T20:59:45.142Z,102932.80
2022-11-12T21:02:16.531Z,102936.40
2022-11-12T21:04:44.660Z,102936.40
2022-11-12T21:07:12.903Z,102940.00
2022-11-12T21:09:44.999Z,102941.00
2022-11-12T21:12:15.303Z,102934.60
2022-11-12T21:14:50.588Z,102933.80
2022-11-12T21:17:20.815Z,102931.80
2022-11-12T21:19:54.661Z,102929.40
2022-11-12T21:22:25.104Z,102935.20
2022-11-12T21:24:55.240Z,102936.80
2022-11-12T21:27:23.834Z,102939.00
2022-11-12T21:29:53.181Z,102942.00
2022-11-12T21:32:24.835Z,102950.60
2022-11-12T21:34:53.340Z,102953.00
2022-11-12T21:37:31.515Z,102951.40
2022-11-12T21:39:59.478Z,102947.20
2022-11-12T21:42:29.896Z,102946.20
2022-11-12T21:45:00.180Z,102946.00
2022-11-12T21:47:29.644Z,102955.00
2022-11-12T21:49:58.588Z,102957.00
2022-11-12T21:52:31.138Z,102959.00
2022-11-12T21:54:59.034Z,102960.40
2022-11-12T21:57:27.464Z,102959.20
2022-11-12T22:00:00.286Z,102962.20
2022-11-12T22:02:41.635Z,102961.80
2022-11-12T22:05:10.336Z,102960.20
2022-11-12T22:07:38.413Z,102958.00
2022-11-12T22:10:07.142Z,102959.40
2022-11-12T22:12:34.959Z,102953.80
2022-11-12T22:15:03.500Z,102947.80
2022-11-12T22:17:34.451Z,102947.20
2022-11-12T22:20:03.402Z,102949.80
2022-11-12T22:22:32.532Z,102945.60
2022-11-12T22:25:01.890Z,102942.00
2022-11-12T22:27:35.449Z,102942.40
2022-11-12T22:30:05.783Z,102939.00
2022-11-12T22:32:34.097Z,102937.60
2022-11-12T22:35:02.171Z,102941.20
2022-11-12T22:37:33.017Z,102935.60
2022-11-12T22:40:04.238Z,102933.00
2022-11-12T22:42:37.162Z,102938.80
2022-11-12T22:45:09.731Z,102939.40
2022-11-12T22:47:38.986Z,102938.80
2022-11-12T22:50:09.932Z,102941.40
2022-11-12T22:52:44.493Z,102943.40
2022-11-12T22:55:18.829Z,102943.60
2022-11-12T22:57:47.478Z,102948.80
2022-11-12T23:00:18.955Z,102953.40
2022-11-12T23:02:50.873Z,102954.00
2022-11-12T23:05:19.890Z,102954.60
2022-11-12T23:07:53.143Z,102955.40
2022-11-12T23:10:21.063Z,102957.40
2022-11-12T23:12:49.444Z,102954.80
2022-11-12T23:15:18.014Z,102959.80
2022-11-12T23:17:46.610Z,102962.00
2022-11-12T23:20:14.552Z,102963.00
2022-11-12T23:22:43.950Z,102962.20
2022-11-12T23:25:12.388Z,102967.20
2022-11-12T23:27:42.229Z,102971.20
2022-11-12T23:30:11.225Z,102972.00
2022-11-12T23:32:39.260Z,102974.00
2022-11-12T23:35:08.942Z,102977.80
2022-11-12T23:37:37.136Z,102975.60
2022-11-12T23:40:10.104Z,102973.80
2022-11-12T23:42:38.410Z,102970.60
2022-11-12T23:45:10.315Z,102972.20
2022-11-12T23:47:40.523Z,102974.40
2022-11-12T23:50:10.069Z,102979.80
2022-11-12T23:52:41.178Z,102975.40
2022-11-12T23:55:10.705Z,102965.80
2022-11-12T23:57:40.472Z,102967.00
